Time;durP1;ratioP1;P1;durP2;ratioP2;P2;SDS_P1;SDS_P2;PMS_P1;PMS_P2;Temp;Humidity;BMP_temperature;BMP_pressure;BME280_temperature;BME280_humidity;BME280_pressure;Samples;Min_cycle;Max_cycle;Signal;HPM_P1;HPM_P2
2022/07/26 00:01:17;;;;;;;7.10;1.35;;;;;;;21.08;68.25;98496.56;5039492;28;20031;-66
2022/07/26 00:03:43;;;;;;;3.10;1.05;;;;;;;21.22;68.30;98507.81;5036404;28;20047;-66
2022/07/26 00:06:08;;;;;;;2.50;0.85;;;;;;;21.27;68.61;98520.72;5047719;28;20025;-66
2022/07/26 00:08:34;;;;;;;4.50;1.05;;;;;;;21.28;68.28;98533.41;5046225;28;20067;-66
2022/07/26 00:10:59;;;;;;;3.42;1.35;;;;;;;21.26;69.30;98538.34;5051542;28;20146;-66
2022/07/26 00:13:25;;;;;;;3.10;1.30;;;;;;;21.19;71.06;98539.44;5043873;28;20437;-66
2022/07/26 00:15:50;;;;;;;2.58;1.33;;;;;;;21.20;72.22;98540.28;5056401;28;20112;-66
2022/07/26 00:18:16;;;;;;;2.22;1.00;;;;;;;21.24;71.01;98527.63;5044165;28;20025;-66
2022/07/26 00:20:42;;;;;;;2.35;1.17;;;;;;;21.27;71.17;98540.00;5052752;28;20048;-66
2022/07/26 00:23:08;;;;;;;3.38;1.42;;;;;;;21.39;71.22;98546.88;5054307;28;20029;-66
2022/07/26 00:25:33;;;;;;;4.38;1.02;;;;;;;21.43;70.94;98544.38;5054072;28;20029;-66
2022/07/26 00:27:59;;;;;;;1.92;0.90;;;;;;;21.48;70.18;98543.53;5055820;28;20528;-66
2022/07/26 00:30:25;;;;;;;3.65;1.17;;;;;;;21.48;70.84;98558.09;5066500;28;20047;-66
2022/07/26 00:32:51;;;;;;;2.45;1.17;;;;;;;21.59;70.10;98548.72;5050942;28;20032;-66
2022/07/26 00:35:17;;;;;;;4.95;1.25;;;;;;;21.43;70.65;98525.09;5046033;28;21675;-66
2022/07/26 00:37:43;;;;;;;4.22;1.35;;;;;;;21.47;70.52;98539.13;5043150;28;20028;-66
2022/07/26 00:40:09;;;;;;;2.70;1.10;;;;;;;21.45;71.26;98545.72;5037820;28;20137;-66
2022/07/26 00:42:35;;;;;;;3.10;1.70;;;;;;;21.46;71.93;98554.84;5050767;28;20083;-66
2022/07/26 00:45:00;;;;;;;7.25;1.48;;;;;;;21.47;71.71;98545.47;5050827;28;20557;-66
2022/07/26 00:47:26;;;;;;;2.63;1.50;;;;;;;21.51;71.06;98556.72;5048100;28;20402;-66
2022/07/26 00:49:51;;;;;;;5.80;1.35;;;;;;;21.47;72.75;98564.72;5052380;28;20029;-66
2022/07/26 00:52:16;;;;;;;2.00;1.20;;;;;;;21.35;71.83;98543.00;5064269;28;20047;-66
2022/07/26 00:54:44;;;;;;;3.42;1.20;;;;;;;21.37;72.38;98554.53;5049581;28;20076;-66
2022/07/26 00:57:10;;;;;;;2.00;1.20;;;;;;;21.43;76.72;98571.88;5041942;28;20025;-66
2022/07/26 00:59:36;;;;;;;2.63;1.20;;;;;;;21.33;84.77;98583.72;5064666;28;20064;-66
2022/07/26 01:02:04;;;;;;;5.18;1.30;;;;;;;21.40;83.45;98605.47;5048659;28;20056;-66
2022/07/26 01:04:29;;;;;;;4.25;1.27;;;;;;;21.21;88.81;98606.03;5050468;28;20101;-66
2022/07/26 01:06:55;;;;;;;5.38;1.30;;;;;;;21.11;95.02;98617.06;5045173;28;20111;-67
2022/07/26 01:09:21;;;;;;;3.42;1.65;;;;;;;20.68;100.00;98618.44;5052250;28;20051;-66
2022/07/26 01:11:47;;;;;;;2.65;1.20;;;;;;;20.12;100.00;98622.72;5051349;28;20051;-66
2022/07/26 01:14:12;;;;;;;2.58;1.23;;;;;;;19.68;100.00;98616.78;5048831;28;20540;-66
2022/07/26 01:16:37;;;;;;;3.90;1.13;;;;;;;19.69;100.00;98616.50;5046529;28;20502;-66
2022/07/26 01:19:03;;;;;;;2.40;1.45;;;;;;;19.48;100.00;98615.53;5045080;28;20522;-67
2022/07/26 01:21:30;;;;;;;2.35;1.20;;;;;;;19.23;100.00;98615.38;5045474;28;20083;-67
2022/07/26 01:23:55;;;;;;;4.32;1.58;;;;;;;19.11;100.00;98612.03;5046169;28;21881;-66
2022/07/26 01:26:21;;;;;;;7.00;2.22;;;;;;;18.99;100.00;98601.22;5049394;28;20025;-66
2022/07/26 01:28:48;;;;;;;2.33;1.42;;;;;;;18.80;100.00;98612.59;5045947;28;20032;-66
2022/07/26 01:31:14;;;;;;;4.75;1.80;;;;;;;18.55;100.00;98615.94;5047624;28;20478;-66
2022/07/26 01:33:40;;;;;;;3.22;1.50;;;;;;;18.27;100.00;98611.56;5046844;28;20032;-66
2022/07/26 01:36:05;;;;;;;1.98;1.50;;;;;;;18.11;100.00;98594.13;5040140;28;20534;-66
2022/07/26 01:38:31;;;;;;;2.63;1.38;;;;;;;17.90;100.00;98582.13;5043128;28;20120;-66
2022/07/26 01:40:56;;;;;;;3.30;1.50;;;;;;;17.80;100.00;98579.28;5044406;28;20427;-66
2022/07/26 01:43:21;;;;;;;4.38;1.42;;;;;;;17.90;100.00;98598.56;5055641;28;20467;-66
2022/07/26 01:45:47;;;;;;;4.32;1.38;;;;;;;17.65;100.00;98568.13;5046416;28;20013;-66
2022/07/26 01:48:12;;;;;;;3.10;1.90;;;;;;;17.83;100.00;98594.34;5039484;28;20025;-66
2022/07/26 01:50:37;;;;;;;2.60;1.55;;;;;;;17.80;100.00;98595.69;5040085;28;20037;-66
2022/07/26 01:56:25;;;;;;;4.75;1.70;;;;;;;17.66;100.00;98608.91;5049829;28;20398;-66
2022/07/26 01:58:50;;;;;;;4.07;2.00;;;;;;;17.69;100.00;98608.41;5043276;28;20144;-66
2022/07/26 02:01:15;;;;;;;3.33;1.65;;;;;;;17.75;100.00;98607.38;5049493;28;20028;-66
2022/07/26 02:03:41;;;;;;;4.45;1.30;;;;;;;17.66;100.00;98591.69;5053511;28;20384;-66
2022/07/26 02:06:06;;;;;;;3.85;1.98;;;;;;;17.74;100.00;98604.91;5049399;28;20108;-67
2022/07/26 02:08:31;;;;;;;1.77;1.48;;;;;;;17.83;100.00;98602.56;5043974;28;20033;-67
2022/07/26 02:11:00;;;;;;;4.70;1.70;;;;;;;17.87;100.00;98603.72;5044820;28;20028;-67
2022/07/26 02:13:37;;;;;;;5.53;1.58;;;;;;;17.81;100.00;98599.25;5051566;28;20028;-67
2022/07/26 02:16:05;;;;;;;2.60;1.42;;;;;;;17.81;100.00;98602.00;5049412;28;20029;-67
2022/07/26 02:18:31;;;;;;;4.70;1.70;;;;;;;17.76;100.00;98594.50;5049607;28;20064;-66
2022/07/26 02:20:58;;;;;;;3.55;1.38;;;;;;;17.91;100.00;98588.44;5058072;28;20032;-66
2022/07/26 02:23:24;;;;;;;3.58;1.77;;;;;;;17.88;100.00;98599.91;5061175;28;20020;-66
2022/07/26 02:25:50;;;;;;;5.72;1.90;;;;;;;17.89;100.00;98598.81;5051520;28;20021;-66
2022/07/26 02:28:16;;;;;;;3.83;1.60;;;;;;;18.01;100.00;98596.75;5075487;22;20040;-70
2022/07/26 02:30:43;;;;;;;2.13;1.35;;;;;;;17.92;100.00;98598.28;5086023;28;20027;-70
2022/07/26 02:33:08;;;;;;;7.68;1.90;;;;;;;17.79;100.00;98576.75;5086055;28;20023;-69
2022/07/26 02:35:34;;;;;;;2.28;1.60;;;;;;;17.91;100.00;98591.16;5079274;28;20040;-69
2022/07/26 02:38:01;;;;;;;4.10;1.40;;;;;;;17.87;100.00;98590.88;5072688;28;20101;-69
2022/07/26 02:40:27;;;;;;;3.72;1.55;;;;;;;17.74;100.00;98578.38;5067147;28;20016;-70
2022/07/26 02:42:52;;;;;;;1.88;1.42;;;;;;;17.88;100.00;98594.41;5061425;28;20488;-70
2022/07/26 02:45:17;;;;;;;3.45;1.75;;;;;;;17.80;100.00;98586.66;5065894;28;20032;-70
2022/07/26 02:47:48;;;;;;;2.65;1.52;;;;;;;17.65;100.00;98581.78;5068828;28;20028;-70
2022/07/26 02:50:17;;;;;;;4.25;1.92;;;;;;;17.71;100.00;98589.81;5067156;28;20078;-70
2022/07/26 02:52:42;;;;;;;3.03;1.60;;;;;;;17.77;100.00;98598.91;5068785;28;20038;-70
2022/07/26 02:55:08;;;;;;;3.70;1.65;;;;;;;17.85;100.00;98603.16;5061313;28;20037;-70
2022/07/26 02:57:33;;;;;;;4.88;1.80;;;;;;;17.80;100.00;98592.97;5063908;28;20111;-70
2022/07/26 02:59:58;;;;;;;3.00;1.60;;;;;;;17.95;100.00;98595.88;5065853;28;20047;-70
2022/07/26 03:02:23;;;;;;;2.17;1.55;;;;;;;18.00;100.00;98589.63;5063463;28;20047;-70
2022/07/26 03:04:49;;;;;;;3.42;1.52;;;;;;;18.00;100.00;98588.78;5065870;28;20984;-70
2022/07/26 03:07:14;;;;;;;2.05;1.13;;;;;;;18.11;100.00;98591.41;5066835;28;20029;-70
2022/07/26 03:09:39;;;;;;;3.08;1.65;;;;;;;18.09;100.00;98588.09;5066523;28;20020;-70
2022/07/26 03:12:05;;;;;;;3.63;1.65;;;;;;;18.04;100.00;98582.56;5068092;28;20030;-70
2022/07/26 03:14:30;;;;;;;3.00;1.48;;;;;;;17.99;100.00;98570.72;5068242;28;20032;-70
2022/07/26 03:16:55;;;;;;;2.83;1.50;;;;;;;18.00;100.00;98575.94;5066629;28;20055;-70
2022/07/26 03:19:21;;;;;;;4.07;1.50;;;;;;;17.95;100.00;98584.09;5065885;28;20028;-69
2022/07/26 03:21:46;;;;;;;2.33;1.40;;;;;;;17.82;100.00;98589.97;5067674;28;20028;-67
2022/07/26 03:24:11;;;;;;;5.65;1.80;;;;;;;17.70;100.00;98601.84;5069527;28;20108;-68
2022/07/26 03:26:36;;;;;;;2.17;1.40;;;;;;;17.62;100.00;98596.81;5064129;28;20494;-67
2022/07/26 03:29:02;;;;;;;3.40;1.40;;;;;;;17.60;100.00;98598.97;5064436;28;20028;-67
2022/07/26 03:31:27;;;;;;;2.67;1.33;;;;;;;17.62;100.00;98599.53;5063324;28;20438;-68
2022/07/26 03:33:52;;;;;;;3.08;1.75;;;;;;;17.65;100.00;98593.56;5059390;28;20024;-68
2022/07/26 03:36:18;;;;;;;2.03;1.63;;;;;;;17.70;100.00;98604.56;5061271;28;20024;-68
2022/07/26 03:38:43;;;;;;;4.00;2.13;;;;;;;17.73;100.00;98603.22;5063310;28;20057;-68
2022/07/26 03:41:08;;;;;;;3.65;2.30;;;;;;;17.66;100.00;98597.97;5065224;28;20032;-68
2022/07/26 03:43:33;;;;;;;4.53;1.80;;;;;;;17.61;100.00;98600.63;5067551;28;20392;-67
2022/07/26 03:45:59;;;;;;;2.88;1.63;;;;;;;17.68;100.00;98606.75;5063993;28;20025;-67
2022/07/26 03:48:24;;;;;;;3.08;2.10;;;;;;;17.74;100.00;98608.47;5066287;28;20021;-68
2022/07/26 03:50:49;;;;;;;2.83;1.55;;;;;;;17.77;100.00;98609.88;5067686;28;20020;-68
2022/07/26 03:53:15;;;;;;;3.45;1.90;;;;;;;17.84;100.00;98596.84;5061702;28;20024;-67
2022/07/26 03:58:24;;;;;;;3.25;2.03;;;;;;;17.86;100.00;98607.53;5061923;28;20047;-65
2022/07/26 04:00:49;;;;;;;3.97;1.80;;;;;;;17.88;100.00;98599.91;5069952;28;20044;-74
2022/07/26 04:03:14;;;;;;;2.30;1.50;;;;;;;18.00;100.00;98614.28;5056017;28;20432;-68
2022/07/26 04:05:39;;;;;;;5.07;1.80;;;;;;;18.08;100.00;98602.03;5064253;28;20024;-68
2022/07/26 04:08:05;;;;;;;3.00;1.90;;;;;;;18.04;100.00;98604.44;5062354;28;20107;-68
2022/07/26 04:10:30;;;;;;;3.30;1.42;;;;;;;18.11;100.00;98604.25;5068891;28;20108;-71
2022/07/26 04:12:55;;;;;;;2.70;1.38;;;;;;;18.11;100.00;98613.31;5067312;28;20028;-69
2022/07/26 04:15:21;;;;;;;4.32;1.80;;;;;;;18.02;100.00;98614.81;5064453;28;20468;-68
2022/07/26 04:17:47;;;;;;;3.20;2.03;;;;;;;18.03;100.00;98613.75;5066796;28;20032;-67
2022/07/26 04:20:12;;;;;;;3.65;2.00;;;;;;;18.04;100.00;98618.13;5070068;28;20078;-67
2022/07/26 04:22:39;;;;;;;5.32;1.67;;;;;;;18.07;100.00;98614.88;5071570;28;20535;-67
2022/07/26 04:25:05;;;;;;;4.10;2.20;;;;;;;18.03;100.00;98619.25;5069100;28;20460;-68
2022/07/26 04:27:32;;;;;;;3.88;1.70;;;;;;;18.03;100.00;98580.91;5061852;28;20063;-68
2022/07/26 04:29:57;;;;;;;3.35;1.77;;;;;;;18.13;100.00;98608.41;5067887;28;20490;-67
2022/07/26 04:32:22;;;;;;;2.90;1.95;;;;;;;18.18;100.00;98613.94;5069939;28;20115;-68
2022/07/26 04:34:48;;;;;;;4.75;1.90;;;;;;;18.20;100.00;98607.34;5068114;28;20115;-67
2022/07/26 04:37:13;;;;;;;4.00;1.83;;;;;;;18.17;100.00;98609.53;5058227;28;20024;-71
2022/07/26 04:39:39;;;;;;;3.83;1.90;;;;;;;18.14;100.00;98629.22;5054746;28;20110;-68
2022/07/26 04:42:04;;;;;;;4.45;2.10;;;;;;;18.25;100.00;98632.06;5064193;28;20024;-68
2022/07/26 04:44:29;;;;;;;3.70;1.73;;;;;;;18.22;100.00;98630.66;5064766;28;20052;-68
2022/07/26 04:46:55;;;;;;;3.90;1.90;;;;;;;18.18;100.00;98622.16;5065972;28;20033;-70
2022/07/26 04:49:20;;;;;;;9.43;1.75;;;;;;;17.95;100.00;98600.53;5064281;28;20652;-67
2022/07/26 04:51:45;;;;;;;4.78;2.05;;;;;;;18.17;100.00;98641.56;5068124;28;20028;-73
2022/07/26 04:54:10;;;;;;;2.72;1.85;;;;;;;18.23;100.00;98642.44;5066233;28;20040;-74
2022/07/26 04:56:36;;;;;;;5.50;1.80;;;;;;;18.40;100.00;98637.69;5068746;28;20024;-72
2022/07/26 04:59:01;;;;;;;4.85;1.92;;;;;;;18.52;100.00;98624.69;5072425;28;20027;-72
2022/07/26 05:01:26;;;;;;;2.63;1.60;;;;;;;18.87;100.00;98637.06;5074347;28;20028;-73
2022/07/26 05:03:52;;;;;;;8.55;1.60;;;;;;;19.05;100.00;98636.66;5068147;28;20040;-73
2022/07/26 05:06:17;;;;;;;4.22;1.90;;;;;;;19.21;100.00;98639.53;5066206;28;20028;-67
2022/07/26 05:08:42;;;;;;;2.13;1.40;;;;;;;19.42;100.00;98635.81;5067484;28;20032;-70
2022/07/26 05:11:08;;;;;;;4.05;1.70;;;;;;;19.63;100.00;98635.94;5072625;28;20031;-64
2022/07/26 05:13:33;;;;;;;3.67;1.60;;;;;;;19.63;100.00;98644.16;5071981;28;20035;-64
2022/07/26 05:15:59;;;;;;;2.05;1.40;;;;;;;19.67;100.00;98634.31;5063279;28;20020;-65
2022/07/26 05:18:25;;;;;;;4.28;2.28;;;;;;;19.74;100.00;98643.16;5068410;28;20028;-64
2022/07/26 05:20:51;;;;;;;4.80;2.22;;;;;;;19.63;100.00;98647.75;5070334;28;21894;-64
2022/07/26 05:23:16;;;;;;;3.65;1.80;;;;;;;19.63;100.00;98652.41;5073130;28;20110;-64
2022/07/26 05:25:41;;;;;;;4.03;1.55;;;;;;;19.72;100.00;98650.00;5066635;28;20036;-63
2022/07/26 05:28:06;;;;;;;6.18;1.90;;;;;;;19.79;100.00;98640.44;5061877;28;20115;-63
2022/07/26 05:30:32;;;;;;;4.05;1.58;;;;;;;19.95;100.00;98649.56;5062378;28;20077;-64
2022/07/26 05:33:00;;;;;;;4.43;1.70;;;;;;;20.22;100.00;98637.56;5061073;28;20078;-65
2022/07/26 05:35:26;;;;;;;2.35;1.42;;;;;;;20.51;100.00;98646.16;5060658;28;21742;-70
2022/07/26 05:37:51;;;;;;;6.25;1.70;;;;;;;20.70;100.00;98652.00;5064981;28;20037;-71
2022/07/26 05:40:16;;;;;;;2.90;1.40;;;;;;;20.60;100.00;98628.06;5072287;28;20119;-70
2022/07/26 05:42:42;;;;;;;3.78;1.90;;;;;;;20.90;100.00;98657.50;5070456;28;20414;-72
2022/07/26 05:45:07;;;;;;;3.10;1.17;;;;;;;20.88;100.00;98651.47;5067574;28;20468;-73
2022/07/26 05:47:33;;;;;;;2.72;1.40;;;;;;;20.95;100.00;98651.16;5065084;28;20033;-70
2022/07/26 05:49:58;;;;;;;10.82;1.60;;;;;;;21.04;100.00;98649.53;5067173;28;20031;-71
2022/07/26 05:52:24;;;;;;;3.85;1.10;;;;;;;21.20;100.00;98659.44;5065513;28;20021;-67
2022/07/26 05:54:49;;;;;;;2.83;1.38;;;;;;;21.41;100.00;98662.19;5064425;28;20052;-65
2022/07/26 05:57:14;;;;;;;3.53;1.02;;;;;;;21.06;100.00;98657.50;5071180;28;20025;-64
2022/07/26 05:59:40;;;;;;;2.72;1.20;;;;;;;21.23;100.00;98652.53;5066956;28;20052;-64
2022/07/26 06:02:07;;;;;;;1.77;1.05;;;;;;;21.55;100.00;98649.47;5068891;28;20032;-66
2022/07/26 06:04:33;;;;;;;4.35;1.20;;;;;;;21.99;100.00;98654.31;5067134;28;20102;-67
2022/07/26 06:06:58;;;;;;;4.30;1.17;;;;;;;22.26;98.28;98653.94;5064648;28;20067;-64
2022/07/26 06:09:23;;;;;;;5.03;1.30;;;;;;;22.49;94.90;98651.59;5068859;28;20036;-70
2022/07/26 06:11:49;;;;;;;2.08;1.27;;;;;;;22.67;93.48;98653.69;5070386;28;20527;-72
2022/07/26 06:14:14;;;;;;;3.85;1.10;;;;;;;22.63;89.78;98657.28;5071398;28;20031;-68
2022/07/26 06:16:40;;;;;;;5.28;1.30;;;;;;;22.65;84.02;98653.16;5070591;28;20028;-72
2022/07/26 06:19:05;;;;;;;2.47;1.20;;;;;;;22.60;84.11;98646.84;5067040;28;20021;-68
2022/07/26 06:21:30;;;;;;;2.90;1.10;;;;;;;22.74;81.54;98647.84;5067524;28;20478;-66
2022/07/26 06:23:56;;;;;;;1.67;1.15;;;;;;;22.64;80.37;98643.25;5062720;28;20732;-68
2022/07/26 06:26:22;;;;;;;3.63;1.15;;;;;;;22.91;80.21;98642.75;5070792;28;20107;-67
2022/07/26 06:28:50;;;;;;;2.80;1.10;;;;;;;23.56;75.05;98641.63;5065255;28;20032;-66
2022/07/26 06:31:16;;;;;;;4.05;1.10;;;;;;;23.31;73.96;98638.00;5068193;28;20028;-67
2022/07/26 06:33:42;;;;;;;3.75;1.35;;;;;;;23.89;69.85;98644.59;5064017;28;20039;-67
2022/07/26 06:36:07;;;;;;;1.58;0.90;;;;;;;24.33;71.52;98649.00;5064621;28;20161;-67
2022/07/26 06:38:32;;;;;;;2.70;1.20;;;;;;;24.81;64.82;98640.59;5067966;28;20028;-68
2022/07/26 06:40:58;;;;;;;4.45;1.30;;;;;;;25.26;63.11;98643.75;5067501;28;20039;-71
2022/07/26 06:43:23;;;;;;;2.55;1.10;;;;;;;25.83;58.26;98641.56;5060111;28;20117;-72
2022/07/26 06:45:49;;;;;;;2.17;1.00;;;;;;;26.56;55.23;98650.88;5058247;28;20036;-71
2022/07/26 06:48:14;;;;;;;2.53;1.00;;;;;;;27.23;51.73;98622.34;5066664;28;20069;-68
2022/07/26 06:50:40;;;;;;;5.72;1.00;;;;;;;28.34;48.40;98635.38;5064928;28;20025;-68
2022/07/26 06:53:05;;;;;;;2.33;0.90;;;;;;;29.11;45.50;98636.59;5067762;28;20031;-68
2022/07/26 06:55:30;;;;;;;3.50;0.95;;;;;;;29.57;43.99;98643.34;5068010;28;20398;-68
2022/07/26 06:57:55;;;;;;;2.08;0.95;;;;;;;29.20;44.85;98648.53;5065064;28;20090;-68
2022/07/26 07:00:21;;;;;;;4.82;0.85;;;;;;;29.79;43.94;98642.34;5064068;28;20016;-67
2022/07/26 07:02:47;;;;;;;6.53;0.90;;;;;;;30.77;41.16;98648.63;5059088;28;20483;-68
2022/07/26 07:05:12;;;;;;;4.30;0.82;;;;;;;32.04;39.17;98644.41;5056600;28;20020;-68
2022/07/26 07:07:38;;;;;;;1.73;0.80;;;;;;;31.96;38.24;98636.13;5061129;28;20032;-68
2022/07/26 07:10:04;;;;;;;2.58;1.13;;;;;;;30.68;39.25;98633.94;5063095;28;20112;-69
2022/07/26 07:12:29;;;;;;;3.20;0.93;;;;;;;31.58;38.17;98654.00;5068272;28;20028;-76
2022/07/26 07:14:55;;;;;;;3.97;0.90;;;;;;;33.51;35.49;98640.38;5069952;28;20043;-71
2022/07/26 07:17:20;;;;;;;4.40;0.70;;;;;;;34.28;34.19;98641.13;5067864;28;20024;-72
2022/07/26 07:19:46;;;;;;;3.58;0.80;;;;;;;34.10;33.35;98627.47;5068050;28;20504;-75
2022/07/26 07:22:11;;;;;;;3.88;0.80;;;;;;;34.80;32.02;98631.50;5065011;28;20016;-74
2022/07/26 07:24:37;;;;;;;4.40;0.82;;;;;;;34.11;33.87;98637.53;5069024;28;20017;-72
2022/07/26 07:27:02;;;;;;;3.15;0.63;;;;;;;35.28;31.51;98632.88;5067571;28;20478;-71
2022/07/26 07:29:28;;;;;;;2.90;0.52;;;;;;;35.65;30.41;98628.75;5067195;28;20032;-70
2022/07/26 07:31:53;;;;;;;1.95;0.80;;;;;;;35.33;30.36;98635.38;5068031;28;20028;-71
2022/07/26 07:34:21;;;;;;;3.13;0.60;;;;;;;35.41;30.63;98633.53;5067836;28;20024;-70
2022/07/26 07:36:50;;;;;;;3.28;0.80;;;;;;;34.05;32.10;98633.34;5070446;28;20375;-71
2022/07/26 07:39:16;;;;;;;3.33;0.60;;;;;;;32.95;33.66;98635.59;5063869;28;20032;-70
2022/07/26 07:41:41;;;;;;;1.42;0.73;;;;;;;31.87;34.50;98637.00;5061732;28;20032;-74
2022/07/26 07:44:07;;;;;;;2.63;0.68;;;;;;;32.99;33.10;98621.72;5069075;28;20021;-71
2022/07/26 07:46:33;;;;;;;3.20;0.80;;;;;;;34.49;31.07;98636.00;5069082;28;20031;-71
2022/07/26 07:48:58;;;;;;;1.05;0.50;;;;;;;35.88;29.27;98626.75;5067743;28;20039;-72
2022/07/26 07:51:25;;;;;;;1.67;0.63;;;;;;;34.68;31.51;98638.88;5062659;28;20020;-69
2022/07/26 07:53:50;;;;;;;2.60;0.70;;;;;;;32.73;33.84;98639.78;5068763;28;20033;-71
2022/07/26 07:56:15;;;;;;;3.83;0.70;;;;;;;30.02;38.09;98642.88;5061860;28;20021;-71
2022/07/26 07:58:41;;;;;;;1.55;0.70;;;;;;;28.65;40.27;98642.81;5067167;28;20025;-71
2022/07/26 08:01:06;;;;;;;7.07;0.80;;;;;;;29.84;38.73;98624.56;5068567;28;20032;-71
2022/07/26 08:03:31;;;;;;;2.85;0.70;;;;;;;31.14;35.33;98637.66;5077528;28;20028;-69
2022/07/26 08:05:57;;;;;;;1.00;0.60;;;;;;;32.17;34.58;98641.59;5079072;28;20008;-71
2022/07/26 08:08:22;;;;;;;3.10;0.88;;;;;;;33.94;31.03;98621.84;5086453;28;20040;-72
2022/07/26 08:10:47;;;;;;;7.65;0.70;;;;;;;33.90;30.27;98626.56;5101450;28;20036;-71
2022/07/26 08:13:13;;;;;;;2.03;0.60;;;;;;;34.41;29.92;98621.00;5095989;28;20036;-74
2022/07/26 08:15:38;;;;;;;4.65;0.70;;;;;;;34.87;30.01;98632.47;5056762;28;20482;-71
2022/07/26 08:18:03;;;;;;;1.70;0.47;;;;;;;34.84;29.53;98640.78;5066657;28;20082;-71
2022/07/26 08:20:29;;;;;;;1.88;0.57;;;;;;;35.67;28.19;98637.66;5068254;28;20028;-71
2022/07/26 08:22:54;;;;;;;3.80;0.70;;;;;;;34.76;29.40;98639.03;5061849;28;20032;-71
2022/07/26 08:25:20;;;;;;;2.42;0.50;;;;;;;35.40;28.44;98634.72;5061402;28;20025;-70
2022/07/26 08:27:45;;;;;;;1.70;0.50;;;;;;;33.68;30.73;98642.06;5084176;22;20043;-60
2022/07/26 08:30:11;;;;;;;4.65;0.68;;;;;;;32.29;32.08;98644.38;5071332;28;20123;-61
2022/07/26 08:32:37;;;;;;;1.88;0.90;;;;;;;31.25;34.70;98643.63;5070661;28;20042;-61
2022/07/26 08:35:02;;;;;;;1.00;0.60;;;;;;;33.03;31.28;98638.66;5071924;28;20032;-61
2022/07/26 08:37:28;;;;;;;1.58;0.60;;;;;;;33.53;31.29;98623.19;5066163;28;20032;-61
2022/07/26 08:39:53;;;;;;;3.25;0.75;;;;;;;31.89;31.97;98645.06;5061138;28;20067;-60
2022/07/26 08:42:21;;;;;;;3.88;0.60;;;;;;;31.69;32.10;98643.19;5059434;28;20035;-59
2022/07/26 08:44:47;;;;;;;3.40;0.70;;;;;;;34.08;29.22;98649.50;5070267;28;20025;-59
2022/07/26 08:47:15;;;;;;;2.80;0.65;;;;;;;33.41;29.67;98652.13;5067258;28;20586;-59
2022/07/26 08:49:41;;;;;;;0.90;0.35;;;;;;;33.02;29.79;98653.84;5063967;28;20028;-60
2022/07/26 08:52:08;;;;;;;1.52;0.50;;;;;;;33.16;29.41;98655.03;5063434;28;20124;-60
2022/07/26 08:54:34;;;;;;;3.53;0.50;;;;;;;34.08;28.88;98655.09;5061959;28;20025;-60
2022/07/26 08:56:59;;;;;;;5.90;0.43;;;;;;;34.50;27.62;98637.63;5064940;28;20578;-59
2022/07/26 08:59:25;;;;;;;1.25;0.50;;;;;;;33.63;28.94;98644.31;5063356;28;20030;-59
2022/07/26 09:01:56;;;;;;;1.50;0.45;;;;;;;34.71;27.71;98656.97;5067881;28;20051;-60
2022/07/26 09:04:24;;;;;;;1.23;0.30;;;;;;;34.67;27.69;98664.53;5065633;28;20032;-63
2022/07/26 09:07:16;;;;;;;1.95;0.60;;;;;;;33.85;28.21;98662.50;5063025;28;20112;-63
2022/07/26 09:09:59;;;;;;;2.88;0.50;;;;;;;34.83;27.47;98673.72;5052541;28;20036;-60
2022/07/26 09:12:26;;;;;;;1.23;0.40;;;;;;;33.90;28.07;98677.06;5059421;28;20029;-59
2022/07/26 09:14:52;;;;;;;1.25;0.30;;;;;;;32.00;30.22;98670.66;5062052;28;20066;-59
2022/07/26 09:17:20;;;;;;;1.65;0.50;;;;;;;32.62;30.37;98675.06;5065309;28;20057;-60
2022/07/26 09:20:04;;;;;;;3.90;1.08;;;;;;;31.88;30.93;98671.41;5063258;28;20043;-60
2022/07/26 09:22:30;;;;;;;1.60;0.55;;;;;;;32.15;30.83;98678.34;5066020;28;20039;-61
2022/07/26 09:24:55;;;;;;;5.38;0.40;;;;;;;31.17;31.05;98675.28;5059350;28;20029;-61
2022/07/26 09:27:20;;;;;;;2.55;0.50;;;;;;;31.39;30.50;98679.72;5070666;28;20085;-61
2022/07/26 09:29:53;;;;;;;2.35;0.40;;;;;;;32.59;29.13;98669.34;5067288;28;20043;-61
2022/07/26 09:32:23;;;;;;;0.60;0.30;;;;;;;31.18;31.23;98683.34;5059303;28;20021;-61
2022/07/26 09:34:52;;;;;;;1.23;0.30;;;;;;;32.43;29.16;98684.03;5064422;28;20029;-62
2022/07/26 09:37:17;;;;;;;;;;;;;;;33.28;29.40;98679.44;5059348;28;20036;-60
2022/07/26 09:39:56;;;;;;;5.32;0.80;;;;;;;32.27;30.79;98674.72;5067161;28;19919;-60
2022/07/26 09:42:23;;;;;;;2.35;0.70;;;;;;;33.48;29.24;98676.75;5064763;28;20021;-60
2022/07/26 09:44:50;;;;;;;4.47;0.50;;;;;;;34.89;27.53;98685.47;5058727;28;20025;-60
2022/07/26 09:47:16;;;;;;;2.28;0.60;;;;;;;31.40;31.89;98686.94;5062738;28;20020;-60
2022/07/26 09:49:42;;;;;;;1.67;0.50;;;;;;;33.11;30.01;98679.72;5068878;28;20035;-63
2022/07/26 09:52:18;;;;;;;1.88;0.60;;;;;;;33.66;28.81;98680.06;5058931;28;20372;-64
2022/07/26 09:54:45;;;;;;;3.00;0.40;;;;;;;35.22;27.90;98698.25;5061758;28;20060;-64
2022/07/26 09:57:16;;;;;;;1.58;0.50;;;;;;;32.14;31.22;98690.69;5061366;28;20071;-65
2022/07/26 09:59:42;;;;;;;1.60;0.50;;;;;;;33.75;29.99;98691.94;5083505;28;20029;-65
2022/07/26 10:02:09;;;;;;;1.23;0.43;;;;;;;33.17;31.02;98689.53;5061589;28;20021;-65
2022/07/26 10:04:34;;;;;;;3.90;0.63;;;;;;;31.22;32.82;98695.44;5066026;28;20020;-63
2022/07/26 10:07:01;;;;;;;2.70;0.80;;;;;;;29.24;35.73;98701.66;5066499;28;20514;-64
2022/07/26 10:09:39;;;;;;;1.88;0.40;;;;;;;31.41;32.47;98710.91;5062065;28;20459;-62
2022/07/26 10:12:07;;;;;;;4.15;0.50;;;;;;;32.32;31.11;98705.28;5073724;28;20071;-64
2022/07/26 10:14:40;;;;;;;3.15;0.57;;;;;;;31.63;31.66;98712.53;5060678;28;20064;-63
2022/07/26 10:17:27;;;;;;;3.58;0.70;;;;;;;33.35;29.94;98687.22;5064180;28;20086;-65
2022/07/26 10:19:57;;;;;;;2.25;0.57;;;;;;;30.44;33.80;98698.00;5063203;28;20017;-61
2022/07/26 10:22:29;;;;;;;2.38;0.70;;;;;;;29.37;35.21;98703.44;5060861;28;20414;-60
2022/07/26 10:25:16;;;;;;;0.95;0.40;;;;;;;29.88;34.80;98701.69;5061107;28;20028;-61
2022/07/26 10:27:45;;;;;;;2.75;0.70;;;;;;;31.15;32.47;98717.56;5043419;28;20088;-64
2022/07/26 10:30:17;;;;;;;1.42;0.60;;;;;;;31.04;32.47;98712.72;5059114;28;20094;-65
2022/07/26 10:33:06;;;;;;;1.63;0.55;;;;;;;33.50;30.53;98699.66;5065574;28;20028;-65
2022/07/26 10:35:43;;;;;;;2.15;0.45;;;;;;;33.29;29.43;98705.47;5059825;28;20052;-63
2022/07/26 10:38:22;;;;;;;1.52;0.47;;;;;;;33.64;29.50;98711.28;5058932;28;20032;-64
2022/07/26 10:41:07;;;;;;;2.97;0.40;;;;;;;33.63;29.01;98701.22;5057410;28;20124;-63
2022/07/26 10:43:33;;;;;;;1.45;0.80;;;;;;;33.27;29.12;98699.41;5061290;28;20107;-64
2022/07/26 10:46:17;;;;;;;1.48;0.55;;;;;;;34.79;27.28;98703.72;5064027;28;20020;-64
2022/07/26 10:49:03;;;;;;;2.20;0.60;;;;;;;34.77;27.81;98706.13;5060758;28;20032;-64
2022/07/26 10:51:38;;;;;;;2.25;0.70;;;;;;;33.17;30.16;98695.13;5060749;28;20547;-66
2022/07/26 10:54:08;;;;;;;3.15;0.68;;;;;;;33.12;30.30;98679.38;5063181;28;20033;-65
2022/07/26 10:56:34;;;;;;;6.20;0.63;;;;;;;34.15;29.17;98693.78;5063145;28;20044;-66
2022/07/26 10:59:00;;;;;;;1.15;0.55;;;;;;;32.79;30.74;98693.56;5054777;28;20405;-66
2022/07/26 11:01:40;;;;;;;1.58;0.50;;;;;;;31.96;31.65;98697.69;5058281;28;20039;-65
2022/07/26 11:04:16;;;;;;;2.88;0.65;;;;;;;33.40;29.16;98703.78;5058389;28;20040;-66
2022/07/26 11:06:41;;;;;;;7.15;0.57;;;;;;;32.65;30.65;98713.56;5053758;28;20029;-66
2022/07/26 11:09:11;;;;;;;0.52;0.50;;;;;;;32.30;31.40;98696.41;5059452;28;20390;-66
2022/07/26 11:11:37;;;;;;;1.35;0.43;;;;;;;31.59;32.27;98712.38;5063530;28;20039;-64
2022/07/26 11:14:08;;;;;;;1.27;0.55;;;;;;;30.70;33.56;98703.41;5062650;28;20397;-64
2022/07/26 11:16:45;;;;;;;2.17;0.68;;;;;;;31.10;32.97;98705.75;5067486;28;20547;-64
2022/07/26 11:19:18;;;;;;;0.85;0.40;;;;;;;31.08;32.33;98708.91;5054381;28;21130;-64
2022/07/26 11:21:55;;;;;;;5.25;0.82;;;;;;;31.32;32.35;98693.41;5081163;28;20549;-64
2022/07/26 11:24:20;;;;;;;2.10;0.50;;;;;;;33.64;29.88;98690.81;5064389;28;20040;-64
2022/07/26 11:26:46;;;;;;;2.88;0.77;;;;;;;32.52;30.28;98695.16;5075240;28;20762;-65
2022/07/26 11:29:12;;;;;;;1.40;0.40;;;;;;;28.33;35.57;98697.75;5055713;28;20082;-64
2022/07/26 11:31:44;;;;;;;3.40;0.50;;;;;;;28.48;36.04;98699.28;5056941;28;20391;-65
2022/07/26 11:34:24;;;;;;;2.33;0.50;;;;;;;28.61;35.50;98699.16;5052436;28;20115;-65